createdAt,value
2023-02-03T00:00:44.298Z,7.90
2023-02-03T00:03:12.171Z,7.90
2023-02-03T00:05:40.864Z,8.00
2023-02-03T00:08:09.903Z,8.10
2023-02-03T00:10:40.749Z,8.10
2023-02-03T00:13:09.738Z,8.10
2023-02-03T00:15:37.553Z,8.00
2023-02-03T00:18:05.410Z,7.80
2023-02-03T00:20:33.477Z,7.80
2023-02-03T00:23:06.155Z,7.90
2023-02-03T00:25:34.057Z,7.90
2023-02-03T00:28:03.437Z,8.10
2023-02-03T00:30:34.361Z,8.10
2023-02-03T00:33:02.481Z,8.20
2023-02-03T00:35:30.402Z,8.30
2023-02-03T00:37:59.205Z,8.30
2023-02-03T00:40:29.815Z,8.20
2023-02-03T00:42:57.849Z,8.10
2023-02-03T00:45:27.069Z,8.00
2023-02-03T00:47:54.916Z,8.10
2023-02-03T00:50:22.741Z,7.90
2023-02-03T00:52:50.582Z,7.90
2023-02-03T00:55:18.483Z,7.80
2023-02-03T00:57:46.321Z,7.80
2023-02-03T01:00:14.947Z,7.80
2023-02-03T01:02:44.156Z,7.70
2023-02-03T01:05:12.499Z,7.70
2023-02-03T01:07:40.538Z,7.60
2023-02-03T01:10:09.084Z,7.50
2023-02-03T01:12:36.899Z,7.50
2023-02-03T01:15:05.239Z,7.60
2023-02-03T01:17:33.023Z,7.70
2023-02-03T01:20:02.278Z,7.80
2023-02-03T01:22:30.938Z,7.90
2023-02-03T01:24:58.872Z,7.70
2023-02-03T01:27:26.739Z,7.60
2023-02-03T01:29:54.573Z,7.60
2023-02-03T01:32:22.369Z,7.50
2023-02-03T01:34:50.275Z,7.60
2023-02-03T01:37:19.447Z,7.50
2023-02-03T01:39:47.268Z,7.60
2023-02-03T01:42:16.128Z,7.60
2023-02-03T01:44:46.115Z,7.70
2023-02-03T01:47:28.739Z,7.60
2023-02-03T01:50:03.245Z,7.60
2023-02-03T01:52:33.458Z,7.70
2023-02-03T01:55:06.255Z,7.80
2023-02-03T01:57:37.078Z,7.70
2023-02-03T02:00:07.566Z,7.70
2023-02-03T02:02:35.605Z,7.70
2023-02-03T02:05:06.970Z,7.70
2023-02-03T02:07:38.692Z,7.80
2023-02-03T02:10:07.681Z,7.80
2023-02-03T02:12:35.496Z,7.90
2023-02-03T02:15:03.650Z,7.90
2023-02-03T02:17:57.274Z,7.80
2023-02-03T02:20:59.324Z,7.80
2023-02-03T02:24:09.455Z,7.80
2023-02-03T02:26:55.769Z,7.80
2023-02-03T02:29:52.330Z,7.90
2023-02-03T02:32:31.861Z,7.90
2023-02-03T02:35:06.732Z,7.90
2023-02-03T02:37:45.526Z,7.90
2023-02-03T02:40:22.249Z,7.90
2023-02-03T02:43:01.091Z,7.90
2023-02-03T02:45:32.110Z,7.90
2023-02-03T02:48:07.320Z,7.90
2023-02-03T02:50:39.988Z,7.90
2023-02-03T02:53:09.117Z,7.90
2023-02-03T02:55:40.810Z,7.90
2023-02-03T02:58:10.641Z,7.90
2023-02-03T03:00:40.744Z,7.90
2023-02-03T03:03:14.483Z,7.90
2023-02-03T03:05:45.317Z,8.00
2023-02-03T03:08:14.126Z,8.00
2023-02-03T03:10:44.260Z,8.00
2023-02-03T03:13:18.267Z,8.00
2023-02-03T03:15:46.973Z,7.80
2023-02-03T03:18:23.417Z,7.70
2023-02-03T03:20:54.244Z,7.70
2023-02-03T03:23:25.877Z,7.60
2023-02-03T03:26:00.972Z,7.60
2023-02-03T03:28:36.504Z,7.60
2023-02-03T03:31:05.017Z,7.60
2023-02-03T03:33:34.384Z,7.60
2023-02-03T03:36:10.389Z,7.60
2023-02-03T03:38:42.551Z,7.60
2023-02-03T03:41:37.665Z,7.60
2023-02-03T03:44:07.825Z,7.50
2023-02-03T03:46:40.989Z,7.50
2023-02-03T03:49:13.003Z,7.50
2023-02-03T03:51:45.323Z,7.60
2023-02-03T03:54:16.457Z,7.60
2023-02-03T03:56:51.437Z,7.70
2023-02-03T03:59:23.517Z,7.70
2023-02-03T04:01:52.743Z,7.70
2023-02-03T04:04:23.261Z,7.70
2023-02-03T04:06:51.050Z,7.60
2023-02-03T04:09:18.857Z,7.60
2023-02-03T04:12:06.173Z,7.60
2023-02-03T04:14:38.600Z,7.70
2023-02-03T04:17:06.833Z,7.60
2023-02-03T04:19:36.045Z,7.60
2023-02-03T04:22:03.891Z,7.70
2023-02-03T04:24:31.728Z,7.70
2023-02-03T04:26:59.861Z,7.80
2023-02-03T04:29:27.732Z,7.80
2023-02-03T04:31:55.553Z,7.80
2023-02-03T04:34:23.403Z,7.70
2023-02-03T04:36:52.557Z,7.80
2023-02-03T04:39:20.405Z,7.80
2023-02-03T04:41:48.224Z,7.80
2023-02-03T04:44:16.060Z,7.80
2023-02-03T04:46:43.863Z,7.70
2023-02-03T04:49:12.007Z,7.70
2023-02-03T04:51:39.894Z,7.80
2023-02-03T04:54:09.211Z,7.80
2023-02-03T04:56:37.464Z,7.90
2023-02-03T04:59:05.285Z,8.10
2023-02-03T05:01:33.106Z,8.20
2023-02-03T05:04:00.857Z,8.10
2023-02-03T05:06:31.964Z,8.00
2023-02-03T05:09:00.018Z,7.90
2023-02-03T05:11:29.686Z,7.90
2023-02-03T05:13:57.599Z,8.00
2023-02-03T05:16:25.513Z,8.00
2023-02-03T05:18:53.676Z,8.00
2023-02-03T05:21:21.535Z,8.00
2023-02-03T05:23:49.333Z,8.00
2023-02-03T05:26:17.116Z,7.90
2023-02-03T05:28:46.212Z,7.80
2023-02-03T05:31:14.117Z,7.70
2023-02-03T05:33:41.986Z,7.80
2023-02-03T05:36:10.704Z,7.80
2023-02-03T05:38:38.462Z,7.80
2023-02-03T05:41:24.079Z,7.80
2023-02-03T05:43:53.671Z,7.70
2023-02-03T05:46:21.428Z,7.70
2023-02-03T05:48:49.186Z,7.70
2023-02-03T05:51:16.978Z,7.70
2023-02-03T05:53:44.830Z,7.70
2023-02-03T05:56:12.590Z,7.60
2023-02-03T05:58:40.324Z,7.70
2023-02-03T06:01:11.591Z,7.80
2023-02-03T06:03:39.555Z,7.80
2023-02-03T06:06:07.449Z,7.80
2023-02-03T06:08:35.195Z,7.80
2023-02-03T06:11:03.089Z,7.80
2023-02-03T06:13:30.964Z,7.80
2023-02-03T06:15:58.779Z,7.80
2023-02-03T06:18:28.039Z,7.80
2023-02-03T06:20:55.900Z,7.80
2023-02-03T06:23:23.720Z,7.80
2023-02-03T06:25:52.456Z,7.80
2023-02-03T06:28:20.309Z,7.80
2023-02-03T06:30:51.006Z,7.80
2023-02-03T06:33:18.974Z,7.80
2023-02-03T06:35:48.247Z,7.80
2023-02-03T06:38:16.052Z,7.80
2023-02-03T06:40:43.893Z,7.80
2023-02-03T06:43:11.669Z,7.80
2023-02-03T06:45:39.460Z,7.80
2023-02-03T06:48:07.625Z,7.90
2023-02-03T06:50:35.879Z,7.90
2023-02-03T06:53:05.047Z,7.80
2023-02-03T06:55:32.865Z,7.80
2023-02-03T06:58:00.676Z,7.80
2023-02-03T07:00:28.715Z,7.80
2023-02-03T07:02:58.137Z,7.80
2023-02-03T07:05:27.772Z,7.80
2023-02-03T07:07:55.614Z,7.70
2023-02-03T07:10:24.828Z,7.70
2023-02-03T07:12:52.607Z,7.70
2023-02-03T07:15:20.575Z,7.70
2023-02-03T07:17:54.316Z,7.80
2023-02-03T07:20:23.520Z,7.80
2023-02-03T07:22:55.221Z,7.80
2023-02-03T07:25:25.296Z,7.80
2023-02-03T07:27:53.334Z,7.80
2023-02-03T07:30:21.399Z,7.80
2023-02-03T07:32:50.236Z,7.80
2023-02-03T07:35:18.192Z,7.80
2023-02-03T07:37:46.369Z,7.80
2023-02-03T07:40:15.410Z,7.90
2023-02-03T07:42:45.633Z,7.80
2023-02-03T07:45:14.498Z,7.80
2023-02-03T07:47:43.786Z,7.80
2023-02-03T07:50:11.958Z,7.90
2023-02-03T07:52:40.255Z,7.90
2023-02-03T07:55:08.850Z,7.90
2023-02-03T07:57:37.006Z,8.00
2023-02-03T08:00:07.139Z,8.00
2023-02-03T08:02:34.936Z,8.00
2023-02-03T08:05:02.767Z,8.10
2023-02-03T08:07:30.637Z,8.10
2023-02-03T08:09:58.424Z,8.20
2023-02-03T08:12:26.239Z,8.20
2023-02-03T08:14:54.055Z,8.20
2023-02-03T08:17:23.255Z,8.20
2023-02-03T08:19:51.118Z,8.30
2023-02-03T08:22:19.431Z,8.30
2023-02-03T08:24:48.152Z,8.30
2023-02-03T08:27:17.707Z,8.40
2023-02-03T08:29:45.877Z,8.50
2023-02-03T08:32:15.675Z,8.50
2023-02-03T08:34:45.468Z,8.50
2023-02-03T08:37:14.624Z,8.50
2023-02-03T08:39:42.849Z,8.50
2023-02-03T08:42:11.537Z,8.60
2023-02-03T08:44:39.899Z,8.60
2023-02-03T08:47:07.960Z,8.60
2023-02-03T08:49:39.252Z,8.70
2023-02-03T08:52:09.436Z,8.70
2023-02-03T08:54:37.538Z,8.70
2023-02-03T08:57:05.462Z,8.70
2023-02-03T08:59:36.148Z,8.80
2023-02-03T09:02:04.464Z,8.80
2023-02-03T09:04:33.453Z,8.80
2023-02-03T09:07:03.428Z,8.80
2023-02-03T09:09:35.090Z,8.80
2023-02-03T09:12:05.332Z,8.90
2023-02-03T09:14:34.085Z,8.90
2023-02-03T09:17:03.186Z,8.90
2023-02-03T09:19:31.542Z,8.90
2023-02-03T09:21:59.444Z,9.00
2023-02-03T09:24:27.492Z,9.00
2023-02-03T09:26:56.682Z,9.00
2023-02-03T09:29:24.599Z,9.00
2023-02-03T09:31:53.691Z,9.00
2023-02-03T09:34:22.361Z,9.00
2023-02-03T09:36:51.269Z,9.00
2023-02-03T09:39:19.179Z,9.10
2023-02-03T09:42:16.713Z,9.10
2023-02-03T09:44:50.465Z,9.20
2023-02-03T09:47:22.759Z,9.10
2023-02-03T09:49:54.575Z,9.20
2023-02-03T09:52:24.563Z,9.20
2023-02-03T09:54:58.218Z,9.20
2023-02-03T09:57:29.739Z,9.30
2023-02-03T09:59:59.456Z,9.30
2023-02-03T10:02:39.845Z,9.40
2023-02-03T10:05:16.588Z,9.40
2023-02-03T10:07:54.423Z,9.40
2023-02-03T10:10:34.952Z,9.40
2023-02-03T10:13:15.758Z,9.50
2023-02-03T10:16:23.084Z,9.50
2023-02-03T10:18:54.602Z,9.50
2023-02-03T10:21:36.649Z,9.60
2023-02-03T10:24:08.323Z,9.60
2023-02-03T10:26:36.482Z,9.70
2023-02-03T10:29:14.098Z,9.70
2023-02-03T10:31:43.909Z,9.70
2023-02-03T10:34:13.923Z,9.80
2023-02-03T10:36:56.815Z,9.80
2023-02-03T10:39:32.847Z,9.80
2023-02-03T10:42:01.685Z,9.80
2023-02-03T10:44:38.792Z,9.80
2023-02-03T10:47:25.820Z,9.80
2023-02-03T10:49:55.229Z,9.80
2023-02-03T10:52:29.782Z,9.90
2023-02-03T10:54:59.367Z,9.90
2023-02-03T10:57:30.286Z,9.80
2023-02-03T11:00:22.561Z,9.70
2023-02-03T11:02:57.362Z,9.70
2023-02-03T11:05:26.339Z,9.70
2023-02-03T11:07:55.341Z,9.70
2023-02-03T11:10:36.054Z,9.70
2023-02-03T11:13:22.803Z,9.70
2023-02-03T11:15:58.594Z,9.60
2023-02-03T11:18:33.092Z,9.60
2023-02-03T11:21:01.373Z,9.70
2023-02-03T11:23:29.167Z,9.70
2023-02-03T11:25:57.201Z,9.80
2023-02-03T11:28:29.229Z,9.80
2023-02-03T11:30:59.190Z,9.70
2023-02-03T11:33:29.036Z,9.70
2023-02-03T11:35:59.927Z,9.70
2023-02-03T11:38:33.226Z,9.80
2023-02-03T11:41:01.826Z,9.90
2023-02-03T11:43:30.782Z,9.90
2023-02-03T11:46:07.748Z,10.00
2023-02-03T11:48:38.691Z,9.90
2023-02-03T11:51:19.561Z,9.90
2023-02-03T11:54:03.420Z,9.80
2023-02-03T11:56:40.688Z,9.80
2023-02-03T11:59:33.316Z,9.70
2023-02-03T12:02:31.208Z,9.70
2023-02-03T12:05:28.908Z,9.60
2023-02-03T12:08:26.277Z,9.50
2023-02-03T12:11:07.829Z,9.40
2023-02-03T12:13:50.529Z,9.40
2023-02-03T12:16:36.414Z,9.40
2023-02-03T12:19:14.991Z,9.40
2023-02-03T12:21:45.742Z,9.30
2023-02-03T12:24:29.253Z,9.30
2023-02-03T12:27:07.247Z,9.20
2023-02-03T12:29:41.261Z,9.20
2023-02-03T12:32:16.911Z,9.10
2023-02-03T12:34:53.014Z,9.10
2023-02-03T12:37:25.309Z,9.10
2023-02-03T12:39:54.955Z,9.10
2023-02-03T12:42:28.624Z,9.10
2023-02-03T12:45:03.092Z,9.10
2023-02-03T12:47:35.193Z,9.00
2023-02-03T12:50:08.448Z,9.10
2023-02-03T12:52:39.711Z,9.00
2023-02-03T12:55:21.706Z,9.00
2023-02-03T12:57:54.975Z,9.10
2023-02-03T13:00:35.610Z,9.10
2023-02-03T13:03:19.744Z,9.10
2023-02-03T13:05:53.501Z,9.10
2023-02-03T13:08:31.086Z,9.10
2023-02-03T13:11:08.900Z,9.10
2023-02-03T13:13:43.727Z,9.10
2023-02-03T13:16:14.584Z,9.10
2023-02-03T13:18:47.218Z,9.20
2023-02-03T13:21:16.563Z,9.20
2023-02-03T13:23:47.418Z,9.20
2023-02-03T13:27:00.649Z,9.20
2023-02-03T13:29:51.239Z,9.20
2023-02-03T13:32:37.618Z,9.20
2023-02-03T13:35:34.195Z,9.20
2023-02-03T13:38:31.640Z,9.20
2023-02-03T13:41:06.938Z,9.20
2023-02-03T13:43:39.425Z,9.20
2023-02-03T13:46:18.670Z,9.20
2023-02-03T13:48:47.608Z,9.20
2023-02-03T13:51:17.644Z,9.20
2023-02-03T13:53:48.284Z,9.20
2023-02-03T13:56:22.441Z,9.20
2023-02-03T13:59:06.073Z,9.10
2023-02-03T14:01:37.034Z,9.20
2023-02-03T14:04:06.521Z,9.20
2023-02-03T14:07:02.285Z,9.10
2023-02-03T14:09:47.676Z,9.20
2023-02-03T14:12:37.313Z,9.20
2023-02-03T14:15:39.499Z,9.10
2023-02-03T14:18:32.577Z,9.10
2023-02-03T14:21:21.941Z,9.00
2023-02-03T14:23:56.440Z,9.10
2023-02-03T14:26:41.676Z,9.00
2023-02-03T14:29:12.087Z,9.00
2023-02-03T14:31:58.785Z,9.00
2023-02-03T14:34:32.629Z,9.00
2023-02-03T14:37:15.020Z,8.90
2023-02-03T14:40:16.990Z,8.90
2023-02-03T14:43:13.303Z,8.90
2023-02-03T14:46:12.607Z,8.80
2023-02-03T14:48:52.948Z,8.80
2023-02-03T14:51:32.078Z,8.80
2023-02-03T14:54:17.853Z,8.80
2023-02-03T14:57:22.298Z,8.80
2023-02-03T14:59:58.945Z,8.70
2023-02-03T15:02:28.657Z,8.70
2023-02-03T15:05:30.371Z,8.70
2023-02-03T15:08:01.152Z,8.70
2023-02-03T15:10:41.652Z,8.70
2023-02-03T15:13:26.470Z,8.80
2023-02-03T15:15:57.709Z,8.80
2023-02-03T15:18:31.178Z,8.80
2023-02-03T15:20:59.748Z,8.80
2023-02-03T15:23:29.830Z,8.80
2023-02-03T15:25:59.514Z,8.80
2023-02-03T15:28:29.061Z,8.80
2023-02-03T15:31:03.458Z,8.80
2023-02-03T15:33:32.972Z,8.80
2023-02-03T15:36:04.408Z,8.80
2023-02-03T15:38:37.038Z,8.80
2023-02-03T15:41:09.080Z,8.80
2023-02-03T15:43:39.532Z,8.90
2023-02-03T15:46:14.959Z,8.90
2023-02-03T15:48:45.311Z,8.90
2023-02-03T15:51:17.559Z,8.90
2023-02-03T15:53:52.741Z,8.90
2023-02-03T15:56:26.473Z,9.00
2023-02-03T15:58:54.788Z,9.00
2023-02-03T16:01:28.111Z,9.00
2023-02-03T16:03:57.923Z,9.00
2023-02-03T16:06:29.746Z,9.00
2023-02-03T16:08:59.476Z,9.10
2023-02-03T16:11:31.309Z,9.10
2023-02-03T16:14:01.167Z,9.10
2023-02-03T16:16:34.998Z,9.10
2023-02-03T16:19:05.028Z,9.20
2023-02-03T16:21:35.940Z,9.20
2023-02-03T16:24:05.245Z,9.20
2023-02-03T16:26:36.532Z,9.20
2023-02-03T16:29:33.388Z,9.20
2023-02-03T16:32:20.257Z,9.20
2023-02-03T16:35:05.875Z,9.30
2023-02-03T16:37:53.624Z,9.30
2023-02-03T16:40:42.170Z,9.30
2023-02-03T16:43:31.048Z,9.20
2023-02-03T16:46:17.667Z,9.20
2023-02-03T16:49:04.494Z,9.20
2023-02-03T16:51:39.181Z,9.20
2023-02-03T16:54:07.885Z,9.10
2023-02-03T16:56:35.680Z,9.10
2023-02-03T16:59:03.500Z,9.10
2023-02-03T17:01:31.541Z,9.10
2023-02-03T17:04:00.661Z,9.10
2023-02-03T17:06:28.479Z,9.10
2023-02-03T17:08:58.727Z,9.10
2023-02-03T17:11:27.169Z,9.10
2023-02-03T17:13:55.017Z,9.00
2023-02-03T17:16:25.031Z,9.00
2023-02-03T17:18:53.645Z,9.10
2023-02-03T17:21:25.317Z,9.10
2023-02-03T17:23:53.151Z,9.20
2023-02-03T17:26:21.469Z,9.20
2023-02-03T17:28:49.416Z,9.20
2023-02-03T17:31:19.756Z,9.20
2023-02-03T17:33:51.181Z,9.20
2023-02-03T17:36:21.519Z,9.30
2023-02-03T17:55:28.681Z,9.40
2023-02-03T17:57:56.656Z,9.30
2023-02-03T18:00:24.746Z,9.30
2023-02-03T18:02:52.934Z,9.30
2023-02-03T18:05:21.058Z,9.30
2023-02-03T18:10:21.688Z,9.30
2023-02-03T18:12:50.831Z,9.20
2023-02-03T18:15:18.775Z,9.20
2023-02-03T18:17:46.707Z,9.10
2023-02-03T18:20:14.728Z,9.20
2023-02-03T18:22:42.532Z,9.10
2023-02-03T18:25:10.356Z,9.10
2023-02-03T18:27:38.167Z,9.00
2023-02-03T18:30:11.213Z,8.90
2023-02-03T18:32:39.014Z,8.90
2023-02-03T18:35:12.877Z,8.80
2023-02-03T18:37:40.770Z,8.80
2023-02-03T18:40:09.057Z,8.80
2023-02-03T18:42:36.866Z,8.80
2023-02-03T18:45:06.302Z,8.80
2023-02-03T18:47:35.818Z,8.80
2023-02-03T18:50:03.916Z,8.80
2023-02-03T18:52:31.748Z,8.80
2023-02-03T18:54:59.554Z,8.80
2023-02-03T18:57:27.640Z,8.80
2023-02-03T18:59:55.479Z,8.80
2023-02-03T19:02:25.678Z,8.80
2023-02-03T19:04:55.390Z,8.80
2023-02-03T19:07:23.206Z,8.80
2023-02-03T19:09:51.050Z,8.80
2023-02-03T19:12:18.942Z,8.80
2023-02-03T19:14:46.723Z,8.80
2023-02-03T19:17:14.731Z,8.80
2023-02-03T19:19:42.543Z,8.80
2023-02-03T19:22:12.890Z,8.80
2023-02-03T19:24:40.776Z,8.80
2023-02-03T19:27:08.598Z,8.80
2023-02-03T19:29:38.535Z,8.80
2023-02-03T19:32:06.746Z,8.80
2023-02-03T19:34:34.862Z,8.70
2023-02-03T19:37:02.632Z,8.70
2023-02-03T19:39:32.258Z,8.70
2023-02-03T19:42:00.172Z,8.70
2023-02-03T19:44:28.157Z,8.70
2023-02-03T19:46:55.966Z,8.70
2023-02-03T19:49:24.646Z,8.70
2023-02-03T19:51:52.795Z,8.80
2023-02-03T19:54:20.661Z,8.70
2023-02-03T19:56:49.853Z,8.80
2023-02-03T19:59:17.673Z,8.70
2023-02-03T20:01:45.638Z,8.70
2023-02-03T20:04:13.530Z,8.70
2023-02-03T20:06:41.372Z,8.80
2023-02-03T20:09:09.213Z,8.80
2023-02-03T20:11:37.078Z,8.80
2023-02-03T20:14:06.520Z,8.70
2023-02-03T20:16:34.450Z,8.70
2023-02-03T20:19:03.996Z,8.70
2023-02-03T20:21:31.787Z,8.80
2023-02-03T20:23:59.680Z,8.80
2023-02-03T20:26:27.616Z,8.70
2023-02-03T20:28:55.463Z,8.70
2023-02-03T20:31:24.794Z,8.70
2023-02-03T20:33:53.254Z,8.80
2023-02-03T20:36:21.101Z,8.70
2023-02-03T20:38:49.265Z,8.70
2023-02-03T20:41:19.263Z,8.70
2023-02-03T20:43:47.182Z,8.70
2023-02-03T20:46:16.935Z,8.70
2023-02-03T20:48:46.541Z,8.70
2023-02-03T20:51:15.917Z,8.70
2023-02-03T20:53:45.111Z,8.70
2023-02-03T20:56:15.049Z,8.60
2023-02-03T20:58:44.486Z,8.60
2023-02-03T21:01:17.312Z,8.70
2023-02-03T21:04:04.434Z,8.70
2023-02-03T21:06:34.784Z,8.70
2023-02-03T21:09:13.212Z,8.70
2023-02-03T21:11:41.282Z,8.70
2023-02-03T21:14:20.160Z,8.60
2023-02-03T21:16:48.722Z,8.60
2023-02-03T21:19:28.069Z,8.60
2023-02-03T21:21:56.322Z,8.70
2023-02-03T21:24:27.450Z,8.70
2023-02-03T21:26:55.966Z,8.60
2023-02-03T21:29:26.299Z,8.60
2023-02-03T21:31:55.224Z,8.60
2023-02-03T21:34:32.571Z,8.60
2023-02-03T21:37:08.744Z,8.60
2023-02-03T21:39:36.609Z,8.60
2023-02-03T21:42:40.849Z,8.60
2023-02-03T21:45:28.323Z,8.60
2023-02-03T21:47:57.896Z,8.60
2023-02-03T21:50:33.141Z,8.60
2023-02-03T21:53:21.562Z,8.60
2023-02-03T21:55:49.866Z,8.60
2023-02-03T21:58:24.268Z,8.70
2023-02-03T22:00:53.714Z,8.70
2023-02-03T22:03:27.297Z,8.80
2023-02-03T22:06:06.377Z,8.90
2023-02-03T22:08:36.894Z,9.20
2023-02-03T22:11:05.165Z,9.10
2023-02-03T22:13:33.182Z,9.20
2023-02-03T22:16:01.272Z,9.20
2023-02-03T22:18:29.116Z,9.30
2023-02-03T22:20:58.355Z,9.20
2023-02-03T22:23:26.171Z,9.40
2023-02-03T22:25:54.140Z,9.20
2023-02-03T22:28:22.070Z,9.30
2023-02-03T22:30:49.972Z,9.20
2023-02-03T22:33:17.821Z,9.40
2023-02-03T22:35:45.752Z,9.30
2023-02-03T22:38:14.929Z,9.40
2023-02-03T22:40:42.733Z,9.30
2023-02-03T22:43:10.605Z,9.40
2023-02-03T22:45:38.412Z,9.50
2023-02-03T22:48:06.626Z,9.30
2023-02-03T22:50:36.244Z,9.20
2023-02-03T22:53:04.571Z,9.20
2023-02-03T22:55:33.717Z,9.10
2023-02-03T22:58:01.566Z,9.20
2023-02-03T23:00:29.860Z,9.20
2023-02-03T23:02:57.878Z,9.50
2023-02-03T23:05:25.761Z,9.40
2023-02-03T23:07:54.424Z,9.50
2023-02-03T23:10:24.162Z,9.50
2023-02-03T23:12:54.016Z,9.60
2023-02-03T23:15:21.801Z,9.50
2023-02-03T23:17:49.625Z,9.40
2023-02-03T23:20:18.287Z,9.30
2023-02-03T23:22:46.516Z,9.20
2023-02-03T23:25:17.204Z,9.00
2023-02-03T23:27:45.083Z,9.00
2023-02-03T23:30:15.403Z,9.00
2023-02-03T23:32:43.321Z,8.90
2023-02-03T23:35:29.238Z,8.90
2023-02-03T23:37:57.033Z,9.10
2023-02-03T23:40:24.852Z,9.20
2023-02-03T23:42:53.183Z,9.30
2023-02-03T23:45:22.396Z,9.30
2023-02-03T23:47:50.307Z,9.40
2023-02-03T23:50:20.072Z,9.40
2023-02-03T23:52:48.297Z,9.60
2023-02-03T23:55:18.483Z,9.50
2023-02-03T23:57:46.465Z,9.30
